sensor_id;sensor_type;location;lat;lon;timestamp;noise_LAeq;noise_LA_min;noise_LA_max;noise_LA01;noise_LA95
65079;Laerm;52655;52.218;5.964;2023-04-23T00:00:22;37.6;31.4;56.0;;
65079;Laerm;52655;52.218;5.964;2023-04-23T00:02:22;40.2;31.5;56.8;;
65079;Laerm;52655;52.218;5.964;2023-04-23T00:04:22;40.7;31.7;59.0;;
65079;Laerm;52655;52.218;5.964;2023-04-23T00:06:22;34.3;31.3;44.4;;
65079;Laerm;52655;52.218;5.964;2023-04-23T00:08:22;41.4;31.6;56.7;;
65079;Laerm;52655;52.218;5.964;2023-04-23T00:10:22;38.2;31.2;54.1;;
65079;Laerm;52655;52.218;5.964;2023-04-23T00:14:22;33.6;31.2;37.8;;
65079;Laerm;52655;52.218;5.964;2023-04-23T00:16:22;36.5;31.3;54.4;;
65079;Laerm;52655;52.218;5.964;2023-04-23T00:18:22;35.7;31.6;51.5;;
65079;Laerm;52655;52.218;5.964;2023-04-23T00:20:22;33.7;31.1;38.5;;
65079;Laerm;52655;52.218;5.964;2023-04-23T00:22:22;38.3;31.6;53.2;;
65079;Laerm;52655;52.218;5.964;2023-04-23T00:24:22;38.9;31.2;57.4;;
65079;Laerm;52655;52.218;5.964;2023-04-23T00:26:22;36.5;31.0;51.2;;
65079;Laerm;52655;52.218;5.964;2023-04-23T00:28:22;37.6;30.7;55.1;;
65079;Laerm;52655;52.218;5.964;2023-04-23T00:30:22;40.9;31.4;57.3;;
65079;Laerm;52655;52.218;5.964;2023-04-23T00:32:23;35.1;31.2;43.9;;
65079;Laerm;52655;52.218;5.964;2023-04-23T00:34:23;39.0;30.8;54.6;;
65079;Laerm;52655;52.218;5.964;2023-04-23T00:36:23;34.7;31.0;39.4;;
65079;Laerm;52655;52.218;5.964;2023-04-23T00:38:23;38.2;30.7;57.3;;
65079;Laerm;52655;52.218;5.964;2023-04-23T00:40:23;38.2;31.1;57.9;;
65079;Laerm;52655;52.218;5.964;2023-04-23T00:42:23;33.1;30.8;39.6;;
65079;Laerm;52655;52.218;5.964;2023-04-23T00:44:23;34.6;31.1;40.7;;
65079;Laerm;52655;52.218;5.964;2023-04-23T00:46:23;35.5;30.1;51.1;;
65079;Laerm;52655;52.218;5.964;2023-04-23T00:48:23;38.2;31.2;52.6;;
65079;Laerm;52655;52.218;5.964;2023-04-23T00:50:23;38.4;30.8;56.8;;
65079;Laerm;52655;52.218;5.964;2023-04-23T00:52:23;34.7;31.1;45.5;;
65079;Laerm;52655;52.218;5.964;2023-04-23T00:54:23;40.4;31.4;54.9;;
65079;Laerm;52655;52.218;5.964;2023-04-23T00:56:23;37.1;30.6;54.6;;
65079;Laerm;52655;52.218;5.964;2023-04-23T00:58:23;37.1;30.3;55.1;;
65079;Laerm;52655;52.218;5.964;2023-04-23T01:00:23;37.9;30.1;57.4;;
65079;Laerm;52655;52.218;5.964;2023-04-23T01:02:24;36.2;31.0;51.5;;
65079;Laerm;52655;52.218;5.964;2023-04-23T01:04:23;36.0;30.1;52.2;;
65079;Laerm;52655;52.218;5.964;2023-04-23T01:06:23;33.3;29.3;40.0;;
65079;Laerm;52655;52.218;5.964;2023-04-23T01:08:24;39.5;30.1;59.8;;
65079;Laerm;52655;52.218;5.964;2023-04-23T01:10:24;42.3;29.8;59.0;;
65079;Laerm;52655;52.218;5.964;2023-04-23T01:13:08;34.8;29.8;49.8;;
65079;Laerm;52655;52.218;5.964;2023-04-23T01:14:47;36.1;30.5;53.2;;
65079;Laerm;52655;52.218;5.964;2023-04-23T01:16:26;38.4;30.2;54.8;;
65079;Laerm;52655;52.218;5.964;2023-04-23T01:18:24;35.8;29.8;54.8;;
65079;Laerm;52655;52.218;5.964;2023-04-23T01:20:24;31.8;30.0;36.0;;
65079;Laerm;52655;52.218;5.964;2023-04-23T01:22:24;41.4;30.0;57.8;;
65079;Laerm;52655;52.218;5.964;2023-04-23T01:24:24;38.1;30.9;53.6;;
65079;Laerm;52655;52.218;5.964;2023-04-23T01:26:24;31.2;29.5;40.9;;
65079;Laerm;52655;52.218;5.964;2023-04-23T01:28:24;36.7;30.0;56.8;;
65079;Laerm;52655;52.218;5.964;2023-04-23T01:30:25;35.1;29.9;50.9;;
65079;Laerm;52655;52.218;5.964;2023-04-23T01:32:24;36.8;30.1;52.4;;
65079;Laerm;52655;52.218;5.964;2023-04-23T01:34:24;40.2;29.7;56.8;;
65079;Laerm;52655;52.218;5.964;2023-04-23T01:36:24;38.7;29.6;57.8;;
65079;Laerm;52655;52.218;5.964;2023-04-23T01:38:25;32.5;29.9;38.1;;
65079;Laerm;52655;52.218;5.964;2023-04-23T01:40:24;39.5;30.4;59.3;;
65079;Laerm;52655;52.218;5.964;2023-04-23T01:42:25;38.0;30.1;55.6;;
65079;Laerm;52655;52.218;5.964;2023-04-23T01:44:25;33.1;30.3;42.7;;
65079;Laerm;52655;52.218;5.964;2023-04-23T01:46:25;38.2;29.8;59.0;;
65079;Laerm;52655;52.218;5.964;2023-04-23T01:48:25;33.6;30.4;40.0;;
65079;Laerm;52655;52.218;5.964;2023-04-23T01:50:25;32.6;29.7;42.2;;
65079;Laerm;52655;52.218;5.964;2023-04-23T01:52:25;32.3;29.9;41.7;;
65079;Laerm;52655;52.218;5.964;2023-04-23T01:54:25;40.4;29.9;60.5;;
65079;Laerm;52655;52.218;5.964;2023-04-23T01:56:26;36.2;30.1;55.8;;
65079;Laerm;52655;52.218;5.964;2023-04-23T01:58:25;39.8;29.3;57.1;;
65079;Laerm;52655;52.218;5.964;2023-04-23T02:00:25;37.8;29.6;55.5;;
65079;Laerm;52655;52.218;5.964;2023-04-23T02:02:25;35.7;29.1;50.1;;
65079;Laerm;52655;52.218;5.964;2023-04-23T02:04:25;42.8;31.1;60.8;;
65079;Laerm;52655;52.218;5.964;2023-04-23T02:06:25;43.3;30.3;64.1;;
65079;Laerm;52655;52.218;5.964;2023-04-23T02:08:25;31.5;28.9;43.3;;
65079;Laerm;52655;52.218;5.964;2023-04-23T02:10:25;38.1;29.9;53.6;;
65079;Laerm;52655;52.218;5.964;2023-04-23T02:12:25;43.8;30.9;58.8;;
65079;Laerm;52655;52.218;5.964;2023-04-23T02:14:25;34.1;29.6;43.4;;
65079;Laerm;52655;52.218;5.964;2023-04-23T02:16:25;35.7;29.7;52.8;;
65079;Laerm;52655;52.218;5.964;2023-04-23T02:18:26;30.2;29.2;33.8;;
65079;Laerm;52655;52.218;5.964;2023-04-23T02:20:26;36.7;29.4;56.0;;
65079;Laerm;52655;52.218;5.964;2023-04-23T02:22:26;35.7;32.1;47.5;;
65079;Laerm;52655;52.218;5.964;2023-04-23T02:24:26;35.0;32.6;38.9;;
65079;Laerm;52655;52.218;5.964;2023-04-23T02:26:26;35.2;32.4;40.4;;
65079;Laerm;52655;52.218;5.964;2023-04-23T02:28:26;35.4;32.1;44.0;;
65079;Laerm;52655;52.218;5.964;2023-04-23T02:30:26;35.7;32.2;46.5;;
65079;Laerm;52655;52.218;5.964;2023-04-23T02:32:26;30.2;28.9;34.1;;
65079;Laerm;52655;52.218;5.964;2023-04-23T02:34:26;31.0;29.5;35.9;;
65079;Laerm;52655;52.218;5.964;2023-04-23T02:36:26;34.8;29.6;49.0;;
65079;Laerm;52655;52.218;5.964;2023-04-23T02:38:26;33.2;29.4;42.4;;
65079;Laerm;52655;52.218;5.964;2023-04-23T02:40:26;32.9;29.7;38.8;;
65079;Laerm;52655;52.218;5.964;2023-04-23T02:42:26;31.4;29.5;43.9;;
65079;Laerm;52655;52.218;5.964;2023-04-23T02:44:26;31.1;29.2;39.5;;
65079;Laerm;52655;52.218;5.964;2023-04-23T02:46:26;33.5;28.6;49.2;;
65079;Laerm;52655;52.218;5.964;2023-04-23T02:48:26;31.1;28.9;42.4;;
65079;Laerm;52655;52.218;5.964;2023-04-23T02:52:26;42.8;29.2;60.0;;
65079;Laerm;52655;52.218;5.964;2023-04-23T02:54:26;41.9;29.6;59.0;;
65079;Laerm;52655;52.218;5.964;2023-04-23T02:56:27;47.2;29.6;64.0;;
65079;Laerm;52655;52.218;5.964;2023-04-23T02:58:27;57.3;29.8;73.0;;
65079;Laerm;52655;52.218;5.964;2023-04-23T03:00:27;59.7;30.0;75.0;;
65079;Laerm;52655;52.218;5.964;2023-04-23T03:02:27;60.0;30.3;75.0;;
65079;Laerm;52655;52.218;5.964;2023-04-23T03:04:27;51.0;30.3;73.0;;
65079;Laerm;52655;52.218;5.964;2023-04-23T03:06:27;40.1;29.9;53.5;;
65079;Laerm;52655;52.218;5.964;2023-04-23T03:10:27;36.5;30.2;46.7;;
65079;Laerm;52655;52.218;5.964;2023-04-23T03:12:27;48.2;30.9;64.0;;
65079;Laerm;52655;52.218;5.964;2023-04-23T03:16:27;58.3;29.9;74.0;;
65079;Laerm;52655;52.218;5.964;2023-04-23T03:19:12;60.8;30.7;76.0;;
65079;Laerm;52655;52.218;5.964;2023-04-23T03:22:29;59.5;30.2;74.0;;
65079;Laerm;52655;52.218;5.964;2023-04-23T03:25:47;53.9;30.4;76.0;;
65079;Laerm;52655;52.218;5.964;2023-04-23T03:29:04;45.7;29.4;61.0;;
65079;Laerm;52655;52.218;5.964;2023-04-23T03:32:28;46.9;30.1;63.0;;
65079;Laerm;52655;52.218;5.964;2023-04-23T03:35:45;45.9;30.1;60.0;;
65079;Laerm;52655;52.218;5.964;2023-04-23T03:39:02;52.8;30.1;68.0;;
65079;Laerm;52655;52.218;5.964;2023-04-23T03:42:28;59.2;32.0;77.0;;
65079;Laerm;52655;52.218;5.964;2023-04-23T03:45:45;60.3;32.4;75.0;;
65079;Laerm;52655;52.218;5.964;2023-04-23T03:49:03;47.6;31.8;66.0;;
65079;Laerm;52655;52.218;5.964;2023-04-23T03:52:28;39.9;31.8;51.5;;
65079;Laerm;52655;52.218;5.964;2023-04-23T03:54:28;52.5;31.1;69.0;;
65079;Laerm;52655;52.218;5.964;2023-04-23T03:56:28;52.8;31.0;67.0;;
65079;Laerm;52655;52.218;5.964;2023-04-23T03:58:28;51.5;33.4;64.0;;
65079;Laerm;52655;52.218;5.964;2023-04-23T04:00:28;51.0;33.1;67.0;;
65079;Laerm;52655;52.218;5.964;2023-04-23T04:02:28;52.0;33.9;64.0;;
65079;Laerm;52655;52.218;5.964;2023-04-23T04:04:28;49.1;33.4;67.0;;
65079;Laerm;52655;52.218;5.964;2023-04-23T04:06:28;51.8;34.2;67.0;;
65079;Laerm;52655;52.218;5.964;2023-04-23T04:08:29;51.1;34.3;70.0;;
65079;Laerm;52655;52.218;5.964;2023-04-23T04:10:29;50.5;34.0;70.0;;
65079;Laerm;52655;52.218;5.964;2023-04-23T04:13:13;48.9;34.9;66.0;;
65079;Laerm;52655;52.218;5.964;2023-04-23T04:14:52;51.2;34.4;67.0;;
65079;Laerm;52655;52.218;5.964;2023-04-23T04:16:31;53.8;34.3;70.0;;
65079;Laerm;52655;52.218;5.964;2023-04-23T04:18:29;49.6;35.2;68.0;;
65079;Laerm;52655;52.218;5.964;2023-04-23T04:20:29;46.6;33.7;61.0;;
65079;Laerm;52655;52.218;5.964;2023-04-23T04:22:29;51.2;32.8;68.0;;
65079;Laerm;52655;52.218;5.964;2023-04-23T04:24:29;46.4;32.4;70.0;;
65079;Laerm;52655;52.218;5.964;2023-04-23T04:26:29;42.6;32.5;54.5;;
65079;Laerm;52655;52.218;5.964;2023-04-23T04:28:29;52.9;31.7;71.0;;
65079;Laerm;52655;52.218;5.964;2023-04-23T04:30:29;53.3;32.3;67.0;;
65079;Laerm;52655;52.218;5.964;2023-04-23T04:32:29;44.2;30.6;63.0;;
65079;Laerm;52655;52.218;5.964;2023-04-23T04:34:29;50.7;32.0;68.0;;
65079;Laerm;52655;52.218;5.964;2023-04-23T04:36:29;45.5;31.9;62.0;;
65079;Laerm;52655;52.218;5.964;2023-04-23T04:38:29;41.4;32.0;53.0;;
65079;Laerm;52655;52.218;5.964;2023-04-23T04:40:30;45.2;31.9;63.0;;
65079;Laerm;52655;52.218;5.964;2023-04-23T04:42:30;42.8;32.6;53.8;;
65079;Laerm;52655;52.218;5.964;2023-04-23T04:44:30;41.3;32.1;54.5;;
65079;Laerm;52655;52.218;5.964;2023-04-23T04:46:30;47.7;31.6;63.2;;
65079;Laerm;52655;52.218;5.964;2023-04-23T04:48:30;46.7;31.4;63.0;;
65079;Laerm;52655;52.218;5.964;2023-04-23T04:50:30;48.4;31.1;62.0;;
65079;Laerm;52655;52.218;5.964;2023-04-23T04:52:30;44.2;31.4;63.0;;
65079;Laerm;52655;52.218;5.964;2023-04-23T04:54:30;42.3;31.9;57.8;;
65079;Laerm;52655;52.218;5.964;2023-04-23T04:56:30;45.7;31.4;63.7;;
65079;Laerm;52655;52.218;5.964;2023-04-23T04:58:30;48.7;31.1;62.5;;
65079;Laerm;52655;52.218;5.964;2023-04-23T05:00:30;50.0;31.6;65.0;;
65079;Laerm;52655;52.218;5.964;2023-04-23T05:02:30;49.2;30.8;64.2;;
65079;Laerm;52655;52.218;5.964;2023-04-23T05:04:30;49.4;30.9;60.7;;
65079;Laerm;52655;52.218;5.964;2023-04-23T05:06:30;49.2;30.9;60.5;;
65079;Laerm;52655;52.218;5.964;2023-04-23T05:08:30;49.4;33.1;62.6;;
65079;Laerm;52655;52.218;5.964;2023-04-23T05:10:30;43.8;31.6;60.5;;
65079;Laerm;52655;52.218;5.964;2023-04-23T05:12:30;41.6;30.8;57.8;;
65079;Laerm;52655;52.218;5.964;2023-04-23T05:14:30;50.7;31.6;64.5;;
65079;Laerm;52655;52.218;5.964;2023-04-23T05:16:30;47.4;31.6;65.0;;
65079;Laerm;52655;52.218;5.964;2023-04-23T05:18:31;45.6;32.7;59.5;;
65079;Laerm;52655;52.218;5.964;2023-04-23T05:20:31;46.4;36.1;59.1;;
65079;Laerm;52655;52.218;5.964;2023-04-23T05:22:31;47.9;35.1;63.5;;
65079;Laerm;52655;52.218;5.964;2023-04-23T05:24:31;46.7;30.9;60.5;;
65079;Laerm;52655;52.218;5.964;2023-04-23T05:26:31;48.9;31.6;64.0;;
65079;Laerm;52655;52.218;5.964;2023-04-23T05:28:31;48.2;31.1;64.0;;
65079;Laerm;52655;52.218;5.964;2023-04-23T05:30:31;46.6;30.8;60.0;;
65079;Laerm;52655;52.218;5.964;2023-04-23T05:32:31;49.7;32.9;62.2;;
65079;Laerm;52655;52.218;5.964;2023-04-23T05:34:31;46.9;32.9;62.3;;
65079;Laerm;52655;52.218;5.964;2023-04-23T05:36:31;47.2;31.9;61.2;;
65079;Laerm;52655;52.218;5.964;2023-04-23T05:40:31;50.4;31.5;68.0;;
65079;Laerm;52655;52.218;5.964;2023-04-23T05:42:31;49.6;33.6;61.8;;
65079;Laerm;52655;52.218;5.964;2023-04-23T05:44:31;45.2;30.8;60.0;;
65079;Laerm;52655;52.218;5.964;2023-04-23T05:46:31;43.5;31.2;56.7;;
65079;Laerm;52655;52.218;5.964;2023-04-23T05:48:31;42.7;32.4;56.8;;
65079;Laerm;52655;52.218;5.964;2023-04-23T05:50:31;37.8;31.2;52.4;;
65079;Laerm;52655;52.218;5.964;2023-04-23T05:54:32;44.0;32.3;61.0;;
65079;Laerm;52655;52.218;5.964;2023-04-23T05:56:32;44.9;32.1;64.0;;
65079;Laerm;52655;52.218;5.964;2023-04-23T05:58:32;48.2;31.4;63.0;;
65079;Laerm;52655;52.218;5.964;2023-04-23T06:00:32;53.6;33.3;69.0;;
65079;Laerm;52655;52.218;5.964;2023-04-23T06:02:32;46.4;30.3;65.0;;
65079;Laerm;52655;52.218;5.964;2023-04-23T06:04:32;41.4;31.0;52.8;;
65079;Laerm;52655;52.218;5.964;2023-04-23T06:06:32;45.2;32.7;60.0;;
65079;Laerm;52655;52.218;5.964;2023-04-23T06:08:32;47.1;31.6;61.0;;
65079;Laerm;52655;52.218;5.964;2023-04-23T06:10:32;50.2;31.5;67.0;;
65079;Laerm;52655;52.218;5.964;2023-04-23T06:12:32;48.4;32.1;64.0;;
65079;Laerm;52655;52.218;5.964;2023-04-23T06:14:32;50.2;31.9;64.5;;
65079;Laerm;52655;52.218;5.964;2023-04-23T06:16:32;44.9;30.6;63.2;;
65079;Laerm;52655;52.218;5.964;2023-04-23T06:18:32;50.2;32.1;64.2;;
65079;Laerm;52655;52.218;5.964;2023-04-23T06:20:32;47.4;31.6;62.5;;
65079;Laerm;52655;52.218;5.964;2023-04-23T06:22:32;43.5;31.4;62.8;;
65079;Laerm;52655;52.218;5.964;2023-04-23T06:24:32;52.5;31.6;62.7;;
65079;Laerm;52655;52.218;5.964;2023-04-23T06:26:32;49.9;32.1;63.0;;
65079;Laerm;52655;52.218;5.964;2023-04-23T06:28:32;43.0;32.9;54.2;;
65079;Laerm;52655;52.218;5.964;2023-04-23T06:30:33;40.7;31.6;53.0;;
65079;Laerm;52655;52.218;5.964;2023-04-23T06:32:33;43.7;32.8;57.8;;
65079;Laerm;52655;52.218;5.964;2023-04-23T06:34:33;46.3;32.1;63.4;;
65079;Laerm;52655;52.218;5.964;2023-04-23T06:36:33;47.8;30.9;61.0;;
65079;Laerm;52655;52.218;5.964;2023-04-23T06:38:33;45.3;31.9;59.0;;
65079;Laerm;52655;52.218;5.964;2023-04-23T06:40:33;50.0;32.6;65.0;;
65079;Laerm;52655;52.218;5.964;2023-04-23T06:42:33;50.9;32.9;62.5;;
65079;Laerm;52655;52.218;5.964;2023-04-23T06:44:33;48.2;33.4;60.0;;
65079;Laerm;52655;52.218;5.964;2023-04-23T06:46:33;49.7;33.1;64.0;;
65079;Laerm;52655;52.218;5.964;2023-04-23T06:48:33;49.7;32.1;63.2;;
65079;Laerm;52655;52.218;5.964;2023-04-23T06:50:33;47.2;32.1;63.2;;
65079;Laerm;52655;52.218;5.964;2023-04-23T06:52:33;45.5;33.1;67.0;;
65079;Laerm;52655;52.218;5.964;2023-04-23T06:54:33;45.7;35.2;59.8;;
65079;Laerm;52655;52.218;5.964;2023-04-23T06:56:33;46.8;35.7;58.9;;
65079;Laerm;52655;52.218;5.964;2023-04-23T06:58:33;45.8;34.5;58.1;;
65079;Laerm;52655;52.218;5.964;2023-04-23T07:00:33;50.2;35.2;58.8;;
65079;Laerm;52655;52.218;5.964;2023-04-23T07:02:33;48.4;40.1;56.7;;
65079;Laerm;52655;52.218;5.964;2023-04-23T07:04:34;46.6;39.2;58.4;;
65079;Laerm;52655;52.218;5.964;2023-04-23T07:06:34;47.2;39.1;59.0;;
65079;Laerm;52655;52.218;5.964;2023-04-23T07:08:34;44.5;34.2;61.0;;
65079;Laerm;52655;52.218;5.964;2023-04-23T07:10:34;46.0;37.1;59.0;;
65079;Laerm;52655;52.218;5.964;2023-04-23T07:12:34;47.4;35.7;58.4;;
65079;Laerm;52655;52.218;5.964;2023-04-23T07:14:34;45.2;33.6;56.7;;
65079;Laerm;52655;52.218;5.964;2023-04-23T07:16:34;47.4;40.0;58.7;;
65079;Laerm;52655;52.218;5.964;2023-04-23T07:18:34;49.4;35.2;63.8;;
65079;Laerm;52655;52.218;5.964;2023-04-23T07:20:34;52.8;33.3;64.8;;
65079;Laerm;52655;52.218;5.964;2023-04-23T07:22:34;50.0;34.9;61.7;;
65079;Laerm;52655;52.218;5.964;2023-04-23T07:24:34;48.9;34.3;61.8;;
65079;Laerm;52655;52.218;5.964;2023-04-23T07:26:34;46.4;33.6;61.2;;
65079;Laerm;52655;52.218;5.964;2023-04-23T07:28:34;45.7;35.4;56.7;;
65079;Laerm;52655;52.218;5.964;2023-04-23T07:30:34;42.7;34.0;56.1;;
65079;Laerm;52655;52.218;5.964;2023-04-23T07:32:34;45.5;35.0;58.8;;
65079;Laerm;52655;52.218;5.964;2023-04-23T07:34:34;47.8;35.2;60.0;;
65079;Laerm;52655;52.218;5.964;2023-04-23T07:36:34;46.8;35.5;59.5;;
65079;Laerm;52655;52.218;5.964;2023-04-23T07:38:34;47.3;36.0;62.3;;
65079;Laerm;52655;52.218;5.964;2023-04-23T07:40:34;50.2;36.8;63.0;;
65079;Laerm;52655;52.218;5.964;2023-04-23T07:42:34;51.1;44.5;58.6;;
65079;Laerm;52655;52.218;5.964;2023-04-23T07:44:35;53.3;48.4;60.8;;
65079;Laerm;52655;52.218;5.964;2023-04-23T07:46:35;53.5;48.9;60.4;;
65079;Laerm;52655;52.218;5.964;2023-04-23T07:48:35;54.6;49.4;61.1;;
65079;Laerm;52655;52.218;5.964;2023-04-23T07:50:35;54.2;49.4;63.5;;
65079;Laerm;52655;52.218;5.964;2023-04-23T07:52:35;54.3;50.0;61.4;;
65079;Laerm;52655;52.218;5.964;2023-04-23T07:54:35;53.0;47.7;62.5;;
65079;Laerm;52655;52.218;5.964;2023-04-23T07:56:35;52.1;44.5;71.0;;
65079;Laerm;52655;52.218;5.964;2023-04-23T07:58:35;50.1;43.0;60.1;;
65079;Laerm;52655;52.218;5.964;2023-04-23T08:01:20;47.8;39.8;57.8;;
65079;Laerm;52655;52.218;5.964;2023-04-23T08:02:58;48.5;36.5;60.5;;
65079;Laerm;52655;52.218;5.964;2023-04-23T08:04:37;50.2;34.7;62.2;;
65079;Laerm;52655;52.218;5.964;2023-04-23T08:06:35;51.1;36.7;61.5;;
65079;Laerm;52655;52.218;5.964;2023-04-23T08:08:35;47.2;32.9;58.6;;
65079;Laerm;52655;52.218;5.964;2023-04-23T08:10:35;44.3;33.9;61.3;;
65079;Laerm;52655;52.218;5.964;2023-04-23T08:12:35;46.5;33.7;56.8;;
65079;Laerm;52655;52.218;5.964;2023-04-23T08:14:36;46.9;35.0;60.1;;
65079;Laerm;52655;52.218;5.964;2023-04-23T08:16:36;50.1;36.5;61.8;;
65079;Laerm;52655;52.218;5.964;2023-04-23T08:18:36;47.4;37.1;64.0;;
65079;Laerm;52655;52.218;5.964;2023-04-23T08:20:36;45.5;33.9;57.8;;
65079;Laerm;52655;52.218;5.964;2023-04-23T08:22:36;49.8;36.5;60.1;;
65079;Laerm;52655;52.218;5.964;2023-04-23T08:24:36;41.9;33.1;53.0;;
65079;Laerm;52655;52.218;5.964;2023-04-23T08:26:36;57.6;42.4;72.0;;
65079;Laerm;52655;52.218;5.964;2023-04-23T08:28:36;49.1;37.0;58.8;;
65079;Laerm;52655;52.218;5.964;2023-04-23T08:30:36;44.7;36.0;57.2;;
65079;Laerm;52655;52.218;5.964;2023-04-23T08:32:37;44.6;34.9;55.3;;
65079;Laerm;52655;52.218;5.964;2023-04-23T08:34:36;41.2;33.6;51.2;;
65079;Laerm;52655;52.218;5.964;2023-04-23T08:36:36;45.0;34.8;57.3;;
65079;Laerm;52655;52.218;5.964;2023-04-23T08:38:36;46.0;33.6;60.4;;
65079;Laerm;52655;52.218;5.964;2023-04-23T08:40:36;45.5;34.6;56.6;;
65079;Laerm;52655;52.218;5.964;2023-04-23T08:44:37;47.8;34.6;61.5;;
65079;Laerm;52655;52.218;5.964;2023-04-23T08:46:36;47.4;36.7;62.7;;
65079;Laerm;52655;52.218;5.964;2023-04-23T08:48:36;47.4;35.1;62.3;;
65079;Laerm;52655;52.218;5.964;2023-04-23T08:50:37;47.1;36.1;60.5;;
65079;Laerm;52655;52.218;5.964;2023-04-23T08:52:37;46.2;36.3;57.8;;
65079;Laerm;52655;52.218;5.964;2023-04-23T08:56:37;45.0;36.1;54.2;;
65079;Laerm;52655;52.218;5.964;2023-04-23T08:58:37;49.8;36.0;66.6;;
65079;Laerm;52655;52.218;5.964;2023-04-23T09:00:37;48.7;38.0;58.4;;
65079;Laerm;52655;52.218;5.964;2023-04-23T09:02:37;48.6;39.0;60.1;;
65079;Laerm;52655;52.218;5.964;2023-04-23T09:04:37;52.2;36.2;64.3;;
65079;Laerm;52655;52.218;5.964;2023-04-23T09:06:37;49.5;34.6;62.7;;
65079;Laerm;52655;52.218;5.964;2023-04-23T09:08:37;45.1;34.0;58.3;;
65079;Laerm;52655;52.218;5.964;2023-04-23T09:10:39;47.1;35.3;59.5;;
65079;Laerm;52655;52.218;5.964;2023-04-23T09:12:38;47.4;33.9;62.1;;
65079;Laerm;52655;52.218;5.964;2023-04-23T09:14:37;50.5;34.6;69.5;;
65079;Laerm;52655;52.218;5.964;2023-04-23T09:16:37;51.2;34.9;66.0;;
65079;Laerm;52655;52.218;5.964;2023-04-23T09:18:37;47.9;35.2;65.0;;
65079;Laerm;52655;52.218;5.964;2023-04-23T09:20:37;44.4;35.4;61.0;;
65079;Laerm;52655;52.218;5.964;2023-04-23T09:22:41;45.6;34.9;59.1;;
65079;Laerm;52655;52.218;5.964;2023-04-23T09:24:40;46.4;36.1;61.8;;
65079;Laerm;52655;52.218;5.964;2023-04-23T09:26:42;45.3;36.2;55.9;;
65079;Laerm;52655;52.218;5.964;2023-04-23T09:28:37;42.9;34.4;54.7;;
65079;Laerm;52655;52.218;5.964;2023-04-23T09:30:38;45.1;37.6;55.7;;
65079;Laerm;52655;52.218;5.964;2023-04-23T09:32:38;43.7;36.3;53.9;;
65079;Laerm;52655;52.218;5.964;2023-04-23T09:34:38;46.3;34.4;65.8;;
65079;Laerm;52655;52.218;5.964;2023-04-23T09:36:38;47.9;36.0;66.9;;
65079;Laerm;52655;52.218;5.964;2023-04-23T09:38:38;45.6;37.3;57.1;;
65079;Laerm;52655;52.218;5.964;2023-04-23T09:40:38;44.7;36.1;57.7;;
65079;Laerm;52655;52.218;5.964;2023-04-23T09:42:38;46.7;37.1;60.3;;
65079;Laerm;52655;52.218;5.964;2023-04-23T09:44:38;47.3;37.3;60.7;;
65079;Laerm;52655;52.218;5.964;2023-04-23T09:46:42;44.6;35.9;54.3;;
65079;Laerm;52655;52.218;5.964;2023-04-23T09:48:39;47.2;36.5;63.2;;
65079;Laerm;52655;52.218;5.964;2023-04-23T09:50:39;46.7;38.1;59.3;;
65079;Laerm;52655;52.218;5.964;2023-04-23T09:52:38;49.4;38.4;63.7;;
65079;Laerm;52655;52.218;5.964;2023-04-23T09:54:38;45.3;37.3;58.9;;
65079;Laerm;52655;52.218;5.964;2023-04-23T09:56:38;47.8;36.5;58.9;;
65079;Laerm;52655;52.218;5.964;2023-04-23T09:58:38;45.2;34.9;60.1;;
65079;Laerm;52655;52.218;5.964;2023-04-23T10:00:38;44.0;36.8;57.1;;
65079;Laerm;52655;52.218;5.964;2023-04-23T10:02:38;44.7;35.5;61.2;;
65079;Laerm;52655;52.218;5.964;2023-04-23T10:04:39;45.5;37.0;59.4;;
65079;Laerm;52655;52.218;5.964;2023-04-23T10:06:39;46.0;35.7;61.3;;
65079;Laerm;52655;52.218;5.964;2023-04-23T10:08:39;44.7;37.0;56.0;;
65079;Laerm;52655;52.218;5.964;2023-04-23T10:10:39;47.0;37.5;67.3;;
65079;Laerm;52655;52.218;5.964;2023-04-23T10:12:39;49.8;38.1;63.5;;
65079;Laerm;52655;52.218;5.964;2023-04-23T10:14:39;50.6;37.1;65.2;;
65079;Laerm;52655;52.218;5.964;2023-04-23T10:18:39;45.3;39.4;54.4;;
65079;Laerm;52655;52.218;5.964;2023-04-23T10:20:39;46.4;34.9;61.0;;
65079;Laerm;52655;52.218;5.964;2023-04-23T10:22:39;48.9;36.0;65.3;;
65079;Laerm;52655;52.218;5.964;2023-04-23T10:24:39;46.4;36.0;58.3;;
65079;Laerm;52655;52.218;5.964;2023-04-23T10:26:40;45.7;34.9;57.2;;
65079;Laerm;52655;52.218;5.964;2023-04-23T10:28:39;48.0;38.0;65.2;;
65079;Laerm;52655;52.218;5.964;2023-04-23T10:30:39;48.2;38.4;63.0;;
65079;Laerm;52655;52.218;5.964;2023-04-23T10:32:40;56.3;39.8;68.6;;
65079;Laerm;52655;52.218;5.964;2023-04-23T10:34:39;57.1;39.0;63.0;;
65079;Laerm;52655;52.218;5.964;2023-04-23T10:36:39;57.3;41.0;63.6;;
65079;Laerm;52655;52.218;5.964;2023-04-23T10:38:40;56.8;38.7;64.0;;
65079;Laerm;52655;52.218;5.964;2023-04-23T10:40:44;56.5;41.7;65.9;;
65079;Laerm;52655;52.218;5.964;2023-04-23T10:42:43;47.4;37.8;62.0;;
65079;Laerm;52655;52.218;5.964;2023-04-23T10:44:42;45.9;38.0;57.7;;
65079;Laerm;52655;52.218;5.964;2023-04-23T10:46:45;47.4;39.1;60.3;;
65079;Laerm;52655;52.218;5.964;2023-04-23T10:49:04;54.7;38.1;67.0;;
65079;Laerm;52655;52.218;5.964;2023-04-23T10:50:40;57.9;46.2;63.1;;
65079;Laerm;52655;52.218;5.964;2023-04-23T10:52:40;50.7;36.0;61.6;;
65079;Laerm;52655;52.218;5.964;2023-04-23T10:54:41;45.6;37.5;61.2;;
65079;Laerm;52655;52.218;5.964;2023-04-23T10:56:40;47.6;38.0;61.8;;
65079;Laerm;52655;52.218;5.964;2023-04-23T10:58:49;48.6;39.0;60.9;;
65079;Laerm;52655;52.218;5.964;2023-04-23T11:00:45;46.1;37.5;59.1;;
65079;Laerm;52655;52.218;5.964;2023-04-23T11:02:43;45.6;37.8;58.0;;
65079;Laerm;52655;52.218;5.964;2023-04-23T11:04:55;47.7;37.7;57.4;;
65079;Laerm;52655;52.218;5.964;2023-04-23T11:06:55;45.4;37.3;56.2;;
65079;Laerm;52655;52.218;5.964;2023-04-23T11:08:50;50.5;39.2;67.9;;
65079;Laerm;52655;52.218;5.964;2023-04-23T11:10:50;48.6;37.3;62.7;;
65079;Laerm;52655;52.218;5.964;2023-04-23T11:12:40;49.4;39.1;61.2;;
65079;Laerm;52655;52.218;5.964;2023-04-23T11:14:42;48.9;40.5;60.2;;
65079;Laerm;52655;52.218;5.964;2023-04-23T11:16:41;45.6;39.9;55.6;;
65079;Laerm;52655;52.218;5.964;2023-04-23T11:18:53;46.4;36.9;60.0;;
65079;Laerm;52655;52.218;5.964;2023-04-23T11:20:41;48.4;39.9;68.8;;
65079;Laerm;52655;52.218;5.964;2023-04-23T11:22:43;48.9;38.6;62.3;;
65079;Laerm;52655;52.218;5.964;2023-04-23T11:24:42;46.4;38.4;56.3;;
65079;Laerm;52655;52.218;5.964;2023-04-23T11:26:41;48.2;40.1;57.9;;
65079;Laerm;52655;52.218;5.964;2023-04-23T11:28:41;47.1;37.9;59.3;;
65079;Laerm;52655;52.218;5.964;2023-04-23T11:34:42;46.7;38.4;60.0;;
65079;Laerm;52655;52.218;5.964;2023-04-23T11:36:41;52.3;38.7;69.1;;
65079;Laerm;52655;52.218;5.964;2023-04-23T11:38:41;47.9;37.4;61.8;;
65079;Laerm;52655;52.218;5.964;2023-04-23T11:40:44;46.6;36.5;59.5;;
65079;Laerm;52655;52.218;5.964;2023-04-23T11:42:42;47.5;37.9;62.6;;
65079;Laerm;52655;52.218;5.964;2023-04-23T11:44:42;50.8;39.5;60.7;;
65079;Laerm;52655;52.218;5.964;2023-04-23T11:46:41;51.5;40.2;64.1;;
65079;Laerm;52655;52.218;5.964;2023-04-23T11:48:41;63.9;40.2;80.7;;
65079;Laerm;52655;52.218;5.964;2023-04-23T11:50:42;46.9;37.5;61.3;;
65079;Laerm;52655;52.218;5.964;2023-04-23T11:52:42;48.6;38.4;57.9;;
65079;Laerm;52655;52.218;5.964;2023-04-23T11:54:42;48.3;38.3;55.9;;
65079;Laerm;52655;52.218;5.964;2023-04-23T11:58:42;47.4;37.3;62.8;;
65079;Laerm;52655;52.218;5.964;2023-04-23T12:01:26;45.9;38.2;57.9;;
65079;Laerm;52655;52.218;5.964;2023-04-23T12:06:23;45.4;35.7;56.8;;
65079;Laerm;52655;52.218;5.964;2023-04-23T12:08:04;46.2;36.2;58.2;;
65079;Laerm;52655;52.218;5.964;2023-04-23T12:11:21;46.1;35.7;59.2;;
65079;Laerm;52655;52.218;5.964;2023-04-23T12:14:42;45.9;36.0;57.6;;
65079;Laerm;52655;52.218;5.964;2023-04-23T12:18:07;47.2;35.4;62.7;;
65079;Laerm;52655;52.218;5.964;2023-04-23T12:21:17;47.2;36.0;57.9;;
65079;Laerm;52655;52.218;5.964;2023-04-23T12:24:44;43.3;36.7;54.0;;
65079;Laerm;52655;52.218;5.964;2023-04-23T12:28:03;47.2;36.5;62.2;;
65079;Laerm;52655;52.218;5.964;2023-04-23T12:31:18;46.5;39.0;58.7;;